sensor_id;sensor_type;location;lat;lon;timestamp;temperature;humidity
8820;DHT22;4446;50.876;4.736;2023-07-29T00:01:34;18.70;99.90
8820;DHT22;4446;50.876;4.736;2023-07-29T00:04:01;18.70;99.90
8820;DHT22;4446;50.876;4.736;2023-07-29T00:06:28;18.70;99.90
8820;DHT22;4446;50.876;4.736;2023-07-29T00:08:55;18.70;99.90
8820;DHT22;4446;50.876;4.736;2023-07-29T00:11:22;18.70;99.90
8820;DHT22;4446;50.876;4.736;2023-07-29T00:13:50;18.60;99.90
8820;DHT22;4446;50.876;4.736;2023-07-29T00:16:18;18.60;99.90
8820;DHT22;4446;50.876;4.736;2023-07-29T00:18:47;18.50;99.90
8820;DHT22;4446;50.876;4.736;2023-07-29T00:21:14;18.50;99.90
8820;DHT22;4446;50.876;4.736;2023-07-29T00:23:41;18.50;99.90
8820;DHT22;4446;50.876;4.736;2023-07-29T00:26:08;18.40;99.90
8820;DHT22;4446;50.876;4.736;2023-07-29T00:28:35;18.40;99.90
8820;DHT22;4446;50.876;4.736;2023-07-29T00:31:03;18.40;99.90
8820;DHT22;4446;50.876;4.736;2023-07-29T00:33:30;18.40;99.90
8820;DHT22;4446;50.876;4.736;2023-07-29T00:35:57;18.40;99.90
8820;DHT22;4446;50.876;4.736;2023-07-29T00:38:27;18.30;99.90
8820;DHT22;4446;50.876;4.736;2023-07-29T00:40:54;18.30;99.90
8820;DHT22;4446;50.876;4.736;2023-07-29T00:43:21;18.30;99.90
8820;DHT22;4446;50.876;4.736;2023-07-29T00:45:47;18.20;99.90
8820;DHT22;4446;50.876;4.736;2023-07-29T00:48:16;18.20;99.90
8820;DHT22;4446;50.876;4.736;2023-07-29T00:50:43;18.20;99.90
8820;DHT22;4446;50.876;4.736;2023-07-29T00:53:10;18.30;99.90
8820;DHT22;4446;50.876;4.736;2023-07-29T00:55:37;18.20;99.90
8820;DHT22;4446;50.876;4.736;2023-07-29T00:58:04;18.20;99.90
8820;DHT22;4446;50.876;4.736;2023-07-29T01:00:31;18.10;99.90
8820;DHT22;4446;50.876;4.736;2023-07-29T01:02:58;18.10;99.90
8820;DHT22;4446;50.876;4.736;2023-07-29T01:05:32;18.00;99.90
8820;DHT22;4446;50.876;4.736;2023-07-29T01:08:03;17.90;99.90
8820;DHT22;4446;50.876;4.736;2023-07-29T01:10:39;17.80;99.90
8820;DHT22;4446;50.876;4.736;2023-07-29T01:13:17;17.80;99.90
8820;DHT22;4446;50.876;4.736;2023-07-29T01:15:49;17.80;99.90
8820;DHT22;4446;50.876;4.736;2023-07-29T01:18:23;17.70;99.90
8820;DHT22;4446;50.876;4.736;2023-07-29T01:20:53;17.70;99.90
8820;DHT22;4446;50.876;4.736;2023-07-29T01:23:25;17.70;99.90
8820;DHT22;4446;50.876;4.736;2023-07-29T01:25:52;17.70;99.90
8820;DHT22;4446;50.876;4.736;2023-07-29T01:28:19;17.70;99.90
8820;DHT22;4446;50.876;4.736;2023-07-29T01:30:49;17.60;99.90
8820;DHT22;4446;50.876;4.736;2023-07-29T01:33:23;17.60;99.90
8820;DHT22;4446;50.876;4.736;2023-07-29T01:35:55;17.50;99.90
8820;DHT22;4446;50.876;4.736;2023-07-29T01:38:29;17.50;99.90
8820;DHT22;4446;50.876;4.736;2023-07-29T01:41:01;17.50;99.90
8820;DHT22;4446;50.876;4.736;2023-07-29T01:43:28;17.40;99.90
8820;DHT22;4446;50.876;4.736;2023-07-29T01:45:55;17.30;99.90
8820;DHT22;4446;50.876;4.736;2023-07-29T01:48:22;17.20;99.90
8820;DHT22;4446;50.876;4.736;2023-07-29T01:50:51;17.20;99.90
8820;DHT22;4446;50.876;4.736;2023-07-29T01:53:17;17.10;99.90
8820;DHT22;4446;50.876;4.736;2023-07-29T01:55:46;17.00;99.90
8820;DHT22;4446;50.876;4.736;2023-07-29T01:58:13;17.00;99.90
8820;DHT22;4446;50.876;4.736;2023-07-29T02:00:40;17.00;99.90
8820;DHT22;4446;50.876;4.736;2023-07-29T02:03:07;17.00;99.90
8820;DHT22;4446;50.876;4.736;2023-07-29T02:05:34;16.90;99.90
8820;DHT22;4446;50.876;4.736;2023-07-29T02:08:01;16.90;99.90
8820;DHT22;4446;50.876;4.736;2023-07-29T02:10:28;16.80;99.90
8820;DHT22;4446;50.876;4.736;2023-07-29T02:12:56;16.80;99.90
8820;DHT22;4446;50.876;4.736;2023-07-29T02:15:23;16.80;99.90
8820;DHT22;4446;50.876;4.736;2023-07-29T02:17:50;16.80;99.90
8820;DHT22;4446;50.876;4.736;2023-07-29T02:20:17;16.70;99.90
8820;DHT22;4446;50.876;4.736;2023-07-29T02:22:44;16.80;99.90
8820;DHT22;4446;50.876;4.736;2023-07-29T02:25:11;16.70;99.90
8820;DHT22;4446;50.876;4.736;2023-07-29T02:27:38;16.70;99.90
8820;DHT22;4446;50.876;4.736;2023-07-29T02:30:08;16.70;99.90
8820;DHT22;4446;50.876;4.736;2023-07-29T02:32:36;16.70;99.90
8820;DHT22;4446;50.876;4.736;2023-07-29T02:35:03;16.70;99.90
8820;DHT22;4446;50.876;4.736;2023-07-29T02:37:31;16.60;99.90
8820;DHT22;4446;50.876;4.736;2023-07-29T02:39:58;16.60;99.90
8820;DHT22;4446;50.876;4.736;2023-07-29T02:42:25;16.70;99.90
8820;DHT22;4446;50.876;4.736;2023-07-29T02:44:51;16.70;99.90
8820;DHT22;4446;50.876;4.736;2023-07-29T02:47:20;16.60;99.90
8820;DHT22;4446;50.876;4.736;2023-07-29T02:49:47;16.70;99.90
8820;DHT22;4446;50.876;4.736;2023-07-29T02:52:14;16.60;99.90
8820;DHT22;4446;50.876;4.736;2023-07-29T02:54:40;16.60;99.90
8820;DHT22;4446;50.876;4.736;2023-07-29T02:57:07;16.60;99.90
8820;DHT22;4446;50.876;4.736;2023-07-29T02:59:34;16.60;99.90
8820;DHT22;4446;50.876;4.736;2023-07-29T03:02:01;16.60;99.90
8820;DHT22;4446;50.876;4.736;2023-07-29T03:04:29;16.60;99.90
8820;DHT22;4446;50.876;4.736;2023-07-29T03:06:56;16.70;99.90
8820;DHT22;4446;50.876;4.736;2023-07-29T03:09:25;16.70;99.90
8820;DHT22;4446;50.876;4.736;2023-07-29T03:11:51;16.70;99.90
8820;DHT22;4446;50.876;4.736;2023-07-29T03:14:20;16.70;99.90
8820;DHT22;4446;50.876;4.736;2023-07-29T03:16:47;16.70;99.90
8820;DHT22;4446;50.876;4.736;2023-07-29T03:19:15;16.60;99.90
8820;DHT22;4446;50.876;4.736;2023-07-29T03:21:43;16.60;99.90
8820;DHT22;4446;50.876;4.736;2023-07-29T03:24:11;16.50;99.90
8820;DHT22;4446;50.876;4.736;2023-07-29T03:26:38;16.50;99.90
8820;DHT22;4446;50.876;4.736;2023-07-29T03:29:05;16.50;99.90
8820;DHT22;4446;50.876;4.736;2023-07-29T03:31:32;16.50;99.90
8820;DHT22;4446;50.876;4.736;2023-07-29T03:33:58;16.50;99.90
8820;DHT22;4446;50.876;4.736;2023-07-29T03:36:25;16.50;99.90
8820;DHT22;4446;50.876;4.736;2023-07-29T03:38:54;16.40;99.90
8820;DHT22;4446;50.876;4.736;2023-07-29T03:41:21;16.40;99.90
8820;DHT22;4446;50.876;4.736;2023-07-29T03:43:48;16.30;99.90
8820;DHT22;4446;50.876;4.736;2023-07-29T03:46:15;16.30;99.90
8820;DHT22;4446;50.876;4.736;2023-07-29T03:48:45;16.30;99.90
8820;DHT22;4446;50.876;4.736;2023-07-29T03:51:12;16.30;99.90
8820;DHT22;4446;50.876;4.736;2023-07-29T03:53:39;16.30;99.90
8820;DHT22;4446;50.876;4.736;2023-07-29T03:56:07;16.30;99.90
8820;DHT22;4446;50.876;4.736;2023-07-29T03:58:34;16.30;99.90
8820;DHT22;4446;50.876;4.736;2023-07-29T04:01:01;16.40;99.90
8820;DHT22;4446;50.876;4.736;2023-07-29T04:03:28;16.50;99.90
8820;DHT22;4446;50.876;4.736;2023-07-29T04:05:55;16.40;99.90
8820;DHT22;4446;50.876;4.736;2023-07-29T04:08:22;16.40;99.90
8820;DHT22;4446;50.876;4.736;2023-07-29T04:10:49;16.40;99.90
8820;DHT22;4446;50.876;4.736;2023-07-29T04:13:17;16.40;99.90
8820;DHT22;4446;50.876;4.736;2023-07-29T04:15:45;16.40;99.90
8820;DHT22;4446;50.876;4.736;2023-07-29T04:18:12;16.40;99.90
8820;DHT22;4446;50.876;4.736;2023-07-29T04:20:38;16.40;99.90
8820;DHT22;4446;50.876;4.736;2023-07-29T04:23:05;16.50;99.90
8820;DHT22;4446;50.876;4.736;2023-07-29T04:25:32;16.50;99.90
8820;DHT22;4446;50.876;4.736;2023-07-29T04:27:59;16.50;99.90
8820;DHT22;4446;50.876;4.736;2023-07-29T04:30:30;16.50;99.90
8820;DHT22;4446;50.876;4.736;2023-07-29T04:32:57;16.60;99.90
8820;DHT22;4446;50.876;4.736;2023-07-29T04:35:24;16.50;99.90
8820;DHT22;4446;50.876;4.736;2023-07-29T04:37:51;16.50;99.90
8820;DHT22;4446;50.876;4.736;2023-07-29T04:40:18;16.50;99.90
8820;DHT22;4446;50.876;4.736;2023-07-29T04:42:45;16.50;99.90
8820;DHT22;4446;50.876;4.736;2023-07-29T04:45:12;16.40;99.90
8820;DHT22;4446;50.876;4.736;2023-07-29T04:47:40;16.50;99.90
8820;DHT22;4446;50.876;4.736;2023-07-29T04:50:08;16.50;99.90
8820;DHT22;4446;50.876;4.736;2023-07-29T04:52:35;16.50;99.90
8820;DHT22;4446;50.876;4.736;2023-07-29T04:55:02;16.60;99.90
8820;DHT22;4446;50.876;4.736;2023-07-29T04:57:29;16.70;99.90
8820;DHT22;4446;50.876;4.736;2023-07-29T04:59:56;16.70;99.90
8820;DHT22;4446;50.876;4.736;2023-07-29T05:02:23;16.70;99.90
8820;DHT22;4446;50.876;4.736;2023-07-29T05:04:51;16.70;99.90
8820;DHT22;4446;50.876;4.736;2023-07-29T05:07:18;16.70;99.90
8820;DHT22;4446;50.876;4.736;2023-07-29T05:09:45;16.70;99.90
8820;DHT22;4446;50.876;4.736;2023-07-29T05:12:12;16.80;99.90
8820;DHT22;4446;50.876;4.736;2023-07-29T05:14:39;16.80;99.90
8820;DHT22;4446;50.876;4.736;2023-07-29T05:17:06;16.80;99.90
8820;DHT22;4446;50.876;4.736;2023-07-29T05:19:33;16.80;99.90
8820;DHT22;4446;50.876;4.736;2023-07-29T05:22:01;16.80;99.90
8820;DHT22;4446;50.876;4.736;2023-07-29T05:24:28;16.80;99.90
8820;DHT22;4446;50.876;4.736;2023-07-29T05:26:55;16.80;99.90
8820;DHT22;4446;50.876;4.736;2023-07-29T05:29:22;16.80;99.90
8820;DHT22;4446;50.876;4.736;2023-07-29T05:31:48;16.80;99.90
8820;DHT22;4446;50.876;4.736;2023-07-29T05:34:15;16.80;99.90
8820;DHT22;4446;50.876;4.736;2023-07-29T05:36:42;17.00;99.90
8820;DHT22;4446;50.876;4.736;2023-07-29T05:39:10;17.00;99.90
8820;DHT22;4446;50.876;4.736;2023-07-29T05:41:38;17.00;99.90
8820;DHT22;4446;50.876;4.736;2023-07-29T05:44:05;17.00;99.90
8820;DHT22;4446;50.876;4.736;2023-07-29T05:46:32;17.00;99.90
8820;DHT22;4446;50.876;4.736;2023-07-29T05:48:59;17.00;99.90
8820;DHT22;4446;50.876;4.736;2023-07-29T05:51:26;17.10;99.90
8820;DHT22;4446;50.876;4.736;2023-07-29T05:53:53;17.10;99.90
8820;DHT22;4446;50.876;4.736;2023-07-29T05:56:21;17.30;99.90
8820;DHT22;4446;50.876;4.736;2023-07-29T05:58:48;17.50;99.90
8820;DHT22;4446;50.876;4.736;2023-07-29T06:01:16;17.70;99.90
8820;DHT22;4446;50.876;4.736;2023-07-29T06:03:46;17.90;99.90
8820;DHT22;4446;50.876;4.736;2023-07-29T06:06:14;18.10;99.90
8820;DHT22;4446;50.876;4.736;2023-07-29T06:08:41;18.30;99.90
8820;DHT22;4446;50.876;4.736;2023-07-29T06:11:08;18.50;99.90
8820;DHT22;4446;50.876;4.736;2023-07-29T06:13:36;18.60;99.90
8820;DHT22;4446;50.876;4.736;2023-07-29T06:16:03;18.60;99.90
8820;DHT22;4446;50.876;4.736;2023-07-29T06:18:30;18.70;99.90
8820;DHT22;4446;50.876;4.736;2023-07-29T06:20:57;18.70;99.90
8820;DHT22;4446;50.876;4.736;2023-07-29T06:23:24;18.60;99.90
8820;DHT22;4446;50.876;4.736;2023-07-29T06:25:51;18.70;99.90
8820;DHT22;4446;50.876;4.736;2023-07-29T06:28:18;18.70;99.90
8820;DHT22;4446;50.876;4.736;2023-07-29T06:30:46;18.70;99.90
8820;DHT22;4446;50.876;4.736;2023-07-29T06:33:13;18.80;99.90
8820;DHT22;4446;50.876;4.736;2023-07-29T06:35:41;19.00;99.90
8820;DHT22;4446;50.876;4.736;2023-07-29T06:38:08;19.00;99.90
8820;DHT22;4446;50.876;4.736;2023-07-29T06:40:35;19.00;99.90
8820;DHT22;4446;50.876;4.736;2023-07-29T06:43:02;19.10;99.90
8820;DHT22;4446;50.876;4.736;2023-07-29T06:45:29;19.30;99.90
8820;DHT22;4446;50.876;4.736;2023-07-29T06:47:57;19.40;99.90
8820;DHT22;4446;50.876;4.736;2023-07-29T06:50:24;19.60;99.90
8820;DHT22;4446;50.876;4.736;2023-07-29T06:52:51;19.70;99.90
8820;DHT22;4446;50.876;4.736;2023-07-29T06:55:18;19.90;99.90
8820;DHT22;4446;50.876;4.736;2023-07-29T06:57:44;19.90;99.90
8820;DHT22;4446;50.876;4.736;2023-07-29T07:00:11;20.10;99.90
8820;DHT22;4446;50.876;4.736;2023-07-29T07:02:38;20.10;99.90
8820;DHT22;4446;50.876;4.736;2023-07-29T07:05:07;20.20;99.90
8820;DHT22;4446;50.876;4.736;2023-07-29T07:07:34;20.30;99.90
8820;DHT22;4446;50.876;4.736;2023-07-29T07:10:01;20.30;99.90
8820;DHT22;4446;50.876;4.736;2023-07-29T07:12:28;20.50;99.90
8820;DHT22;4446;50.876;4.736;2023-07-29T07:14:54;20.50;99.90
8820;DHT22;4446;50.876;4.736;2023-07-29T07:17:21;20.50;99.90
8820;DHT22;4446;50.876;4.736;2023-07-29T07:19:48;20.60;99.90
8820;DHT22;4446;50.876;4.736;2023-07-29T07:22:17;20.90;99.90
8820;DHT22;4446;50.876;4.736;2023-07-29T07:24:44;21.10;99.90
8820;DHT22;4446;50.876;4.736;2023-07-29T07:27:11;21.20;99.90
8820;DHT22;4446;50.876;4.736;2023-07-29T07:29:38;21.10;99.90
8820;DHT22;4446;50.876;4.736;2023-07-29T07:32:05;20.90;99.90
8820;DHT22;4446;50.876;4.736;2023-07-29T07:34:32;20.70;99.90
8820;DHT22;4446;50.876;4.736;2023-07-29T07:37:00;20.70;99.90
8820;DHT22;4446;50.876;4.736;2023-07-29T07:39:28;20.70;99.90
8820;DHT22;4446;50.876;4.736;2023-07-29T07:41:55;20.80;99.90
8820;DHT22;4446;50.876;4.736;2023-07-29T07:44:22;21.00;99.90
8820;DHT22;4446;50.876;4.736;2023-07-29T07:46:51;21.10;99.90
8820;DHT22;4446;50.876;4.736;2023-07-29T07:49:19;21.20;99.90
8820;DHT22;4446;50.876;4.736;2023-07-29T07:51:46;21.20;99.90
8820;DHT22;4446;50.876;4.736;2023-07-29T07:54:13;21.20;99.90
8820;DHT22;4446;50.876;4.736;2023-07-29T07:56:42;21.20;99.90
8820;DHT22;4446;50.876;4.736;2023-07-29T07:59:09;21.10;99.90
8820;DHT22;4446;50.876;4.736;2023-07-29T08:01:36;21.00;99.90
8820;DHT22;4446;50.876;4.736;2023-07-29T08:04:04;21.00;99.90
8820;DHT22;4446;50.876;4.736;2023-07-29T08:06:31;21.00;99.90
8820;DHT22;4446;50.876;4.736;2023-07-29T08:08:58;21.00;99.90
8820;DHT22;4446;50.876;4.736;2023-07-29T08:11:25;21.20;99.90
8820;DHT22;4446;50.876;4.736;2023-07-29T08:13:54;21.60;99.90
8820;DHT22;4446;50.876;4.736;2023-07-29T08:16:20;21.60;99.90
8820;DHT22;4446;50.876;4.736;2023-07-29T08:18:47;21.80;99.90
8820;DHT22;4446;50.876;4.736;2023-07-29T08:21:14;21.80;99.90
8820;DHT22;4446;50.876;4.736;2023-07-29T08:23:41;22.00;99.90
8820;DHT22;4446;50.876;4.736;2023-07-29T08:26:08;22.10;99.90
8820;DHT22;4446;50.876;4.736;2023-07-29T08:28:37;22.00;99.90
8820;DHT22;4446;50.876;4.736;2023-07-29T08:31:06;22.00;99.90
8820;DHT22;4446;50.876;4.736;2023-07-29T08:33:33;22.00;99.90
8820;DHT22;4446;50.876;4.736;2023-07-29T08:36:00;21.90;99.90
8820;DHT22;4446;50.876;4.736;2023-07-29T08:38:27;22.30;99.90
8820;DHT22;4446;50.876;4.736;2023-07-29T08:41:06;22.30;99.90
8820;DHT22;4446;50.876;4.736;2023-07-29T08:43:39;22.50;99.90
8820;DHT22;4446;50.876;4.736;2023-07-29T08:46:07;22.70;99.90
8820;DHT22;4446;50.876;4.736;2023-07-29T08:48:39;22.60;99.90
8820;DHT22;4446;50.876;4.736;2023-07-29T08:51:07;22.70;99.90
8820;DHT22;4446;50.876;4.736;2023-07-29T08:53:35;22.60;99.90
8820;DHT22;4446;50.876;4.736;2023-07-29T08:56:02;22.70;99.90
8820;DHT22;4446;50.876;4.736;2023-07-29T08:58:29;22.50;99.90
8820;DHT22;4446;50.876;4.736;2023-07-29T09:00:56;22.50;99.90
8820;DHT22;4446;50.876;4.736;2023-07-29T09:03:24;22.40;99.90
8820;DHT22;4446;50.876;4.736;2023-07-29T09:05:52;22.40;99.90
8820;DHT22;4446;50.876;4.736;2023-07-29T09:08:20;22.30;99.90
8820;DHT22;4446;50.876;4.736;2023-07-29T09:10:47;22.20;99.90
8820;DHT22;4446;50.876;4.736;2023-07-29T09:13:15;22.20;99.90
8820;DHT22;4446;50.876;4.736;2023-07-29T09:15:42;22.20;99.90
8820;DHT22;4446;50.876;4.736;2023-07-29T09:18:09;22.20;99.90
8820;DHT22;4446;50.876;4.736;2023-07-29T09:20:38;22.30;99.90
8820;DHT22;4446;50.876;4.736;2023-07-29T09:23:08;22.30;99.90
8820;DHT22;4446;50.876;4.736;2023-07-29T09:25:36;22.50;99.90
8820;DHT22;4446;50.876;4.736;2023-07-29T09:28:08;22.60;99.90
8820;DHT22;4446;50.876;4.736;2023-07-29T09:30:35;22.70;99.90
8820;DHT22;4446;50.876;4.736;2023-07-29T09:33:02;22.90;99.90
8820;DHT22;4446;50.876;4.736;2023-07-29T09:35:32;23.30;99.90
8820;DHT22;4446;50.876;4.736;2023-07-29T09:38:01;23.70;99.90
8820;DHT22;4446;50.876;4.736;2023-07-29T09:40:28;24.00;99.90
8820;DHT22;4446;50.876;4.736;2023-07-29T09:43:00;24.00;99.90
8820;DHT22;4446;50.876;4.736;2023-07-29T09:45:27;24.00;99.90
8820;DHT22;4446;50.876;4.736;2023-07-29T09:47:56;23.90;99.90
8820;DHT22;4446;50.876;4.736;2023-07-29T09:50:23;23.90;99.90
8820;DHT22;4446;50.876;4.736;2023-07-29T09:52:51;24.30;99.90
8820;DHT22;4446;50.876;4.736;2023-07-29T09:55:22;24.30;99.90
8820;DHT22;4446;50.876;4.736;2023-07-29T09:57:53;24.50;99.90
8820;DHT22;4446;50.876;4.736;2023-07-29T10:00:20;24.20;99.90
8820;DHT22;4446;50.876;4.736;2023-07-29T10:02:48;24.20;99.90
8820;DHT22;4446;50.876;4.736;2023-07-29T10:05:15;24.40;99.90
8820;DHT22;4446;50.876;4.736;2023-07-29T10:07:42;24.50;99.90
8820;DHT22;4446;50.876;4.736;2023-07-29T10:10:10;24.60;99.90
8820;DHT22;4446;50.876;4.736;2023-07-29T10:12:39;24.70;99.90
8820;DHT22;4446;50.876;4.736;2023-07-29T10:15:08;24.70;99.90
8820;DHT22;4446;50.876;4.736;2023-07-29T10:17:37;25.00;99.90
8820;DHT22;4446;50.876;4.736;2023-07-29T10:20:06;25.10;99.90
8820;DHT22;4446;50.876;4.736;2023-07-29T10:22:37;25.30;99.90
8820;DHT22;4446;50.876;4.736;2023-07-29T10:25:07;25.20;99.90
8820;DHT22;4446;50.876;4.736;2023-07-29T10:27:44;24.90;99.90
8820;DHT22;4446;50.876;4.736;2023-07-29T10:30:13;24.60;99.90
8820;DHT22;4446;50.876;4.736;2023-07-29T10:32:42;24.40;99.90
8820;DHT22;4446;50.876;4.736;2023-07-29T10:35:11;23.80;99.90
8820;DHT22;4446;50.876;4.736;2023-07-29T10:37:38;23.30;99.90
8820;DHT22;4446;50.876;4.736;2023-07-29T10:40:08;23.20;99.90
8820;DHT22;4446;50.876;4.736;2023-07-29T10:42:35;23.00;99.90
8820;DHT22;4446;50.876;4.736;2023-07-29T10:47:56;22.90;99.90
8820;DHT22;4446;50.876;4.736;2023-07-29T10:50:23;21.80;99.90
8820;DHT22;4446;50.876;4.736;2023-07-29T10:52:51;21.10;99.90
8820;DHT22;4446;50.876;4.736;2023-07-29T10:55:26;20.70;99.90
8820;DHT22;4446;50.876;4.736;2023-07-29T10:58:05;20.30;99.90
8820;DHT22;4446;50.876;4.736;2023-07-29T11:00:32;20.20;99.90
8820;DHT22;4446;50.876;4.736;2023-07-29T11:03:02;20.20;99.90
8820;DHT22;4446;50.876;4.736;2023-07-29T11:05:46;20.30;99.90
8820;DHT22;4446;50.876;4.736;2023-07-29T11:08:21;20.20;99.90
8820;DHT22;4446;50.876;4.736;2023-07-29T11:10:59;20.20;99.90
8820;DHT22;4446;50.876;4.736;2023-07-29T11:13:27;20.40;99.90
8820;DHT22;4446;50.876;4.736;2023-07-29T11:15:55;20.60;99.90
8820;DHT22;4446;50.876;4.736;2023-07-29T11:18:27;20.70;99.90
8820;DHT22;4446;50.876;4.736;2023-07-29T11:20:56;20.90;99.90
8820;DHT22;4446;50.876;4.736;2023-07-29T11:23:28;20.90;99.90
8820;DHT22;4446;50.876;4.736;2023-07-29T11:25:56;21.00;99.90
8820;DHT22;4446;50.876;4.736;2023-07-29T11:28:24;21.20;99.90
8820;DHT22;4446;50.876;4.736;2023-07-29T11:30:52;21.50;99.90
8820;DHT22;4446;50.876;4.736;2023-07-29T11:33:20;21.60;99.90
8820;DHT22;4446;50.876;4.736;2023-07-29T11:35:49;21.60;99.90
8820;DHT22;4446;50.876;4.736;2023-07-29T11:38:16;21.60;99.90
8820;DHT22;4446;50.876;4.736;2023-07-29T11:40:48;21.80;99.90
8820;DHT22;4446;50.876;4.736;2023-07-29T11:43:19;21.90;99.90
8820;DHT22;4446;50.876;4.736;2023-07-29T11:45:46;22.00;99.90
8820;DHT22;4446;50.876;4.736;2023-07-29T11:48:13;21.90;99.90
8820;DHT22;4446;50.876;4.736;2023-07-29T11:50:40;21.90;99.90
8820;DHT22;4446;50.876;4.736;2023-07-29T11:53:11;21.70;99.90
8820;DHT22;4446;50.876;4.736;2023-07-29T11:55:38;21.80;99.90
8820;DHT22;4446;50.876;4.736;2023-07-29T11:58:05;22.10;99.90
8820;DHT22;4446;50.876;4.736;2023-07-29T12:00:32;22.20;99.90
8820;DHT22;4446;50.876;4.736;2023-07-29T12:02:59;22.30;99.90
8820;DHT22;4446;50.876;4.736;2023-07-29T12:05:27;22.50;99.90
8820;DHT22;4446;50.876;4.736;2023-07-29T12:07:54;22.40;99.90
8820;DHT22;4446;50.876;4.736;2023-07-29T12:10:22;22.40;99.90
8820;DHT22;4446;50.876;4.736;2023-07-29T12:12:50;22.60;99.90
8820;DHT22;4446;50.876;4.736;2023-07-29T12:15:24;22.60;99.90
8820;DHT22;4446;50.876;4.736;2023-07-29T12:17:53;22.70;99.90
8820;DHT22;4446;50.876;4.736;2023-07-29T12:20:23;22.60;99.90
8820;DHT22;4446;50.876;4.736;2023-07-29T12:22:54;22.80;99.90
8820;DHT22;4446;50.876;4.736;2023-07-29T12:25:22;22.80;99.90
8820;DHT22;4446;50.876;4.736;2023-07-29T12:27:49;22.70;99.90
8820;DHT22;4446;50.876;4.736;2023-07-29T12:30:20;22.60;99.90
8820;DHT22;4446;50.876;4.736;2023-07-29T12:32:47;22.50;99.90
8820;DHT22;4446;50.876;4.736;2023-07-29T12:35:15;22.30;99.90
8820;DHT22;4446;50.876;4.736;2023-07-29T12:37:41;22.20;99.90
8820;DHT22;4446;50.876;4.736;2023-07-29T12:40:22;22.10;99.90
8820;DHT22;4446;50.876;4.736;2023-07-29T12:42:49;21.90;99.90
8820;DHT22;4446;50.876;4.736;2023-07-29T12:45:17;21.80;99.90
8820;DHT22;4446;50.876;4.736;2023-07-29T12:47:44;21.80;99.90
8820;DHT22;4446;50.876;4.736;2023-07-29T12:50:11;21.80;99.90
8820;DHT22;4446;50.876;4.736;2023-07-29T12:52:38;21.70;99.90
8820;DHT22;4446;50.876;4.736;2023-07-29T12:55:06;21.50;99.90
8820;DHT22;4446;50.876;4.736;2023-07-29T12:57:35;21.20;99.90
8820;DHT22;4446;50.876;4.736;2023-07-29T13:00:03;20.80;99.90
8820;DHT22;4446;50.876;4.736;2023-07-29T13:02:31;20.60;99.90
8820;DHT22;4446;50.876;4.736;2023-07-29T13:04:58;20.40;99.90
8820;DHT22;4446;50.876;4.736;2023-07-29T13:07:25;20.30;99.90
8820;DHT22;4446;50.876;4.736;2023-07-29T13:09:52;20.40;99.90
8820;DHT22;4446;50.876;4.736;2023-07-29T13:12:19;20.60;99.90
8820;DHT22;4446;50.876;4.736;2023-07-29T13:14:48;20.80;99.90
8820;DHT22;4446;50.876;4.736;2023-07-29T13:17:14;21.10;99.90
8820;DHT22;4446;50.876;4.736;2023-07-29T13:19:41;21.20;99.90
8820;DHT22;4446;50.876;4.736;2023-07-29T13:22:08;21.30;99.90
8820;DHT22;4446;50.876;4.736;2023-07-29T13:24:35;21.50;99.90
8820;DHT22;4446;50.876;4.736;2023-07-29T13:27:03;21.60;99.90
8820;DHT22;4446;50.876;4.736;2023-07-29T13:29:30;22.10;99.90
8820;DHT22;4446;50.876;4.736;2023-07-29T13:31:58;22.60;99.90
8820;DHT22;4446;50.876;4.736;2023-07-29T13:34:25;22.90;99.90
8820;DHT22;4446;50.876;4.736;2023-07-29T13:36:52;23.30;99.90
8820;DHT22;4446;50.876;4.736;2023-07-29T13:39:19;23.50;99.90
8820;DHT22;4446;50.876;4.736;2023-07-29T13:41:46;23.80;99.90
8820;DHT22;4446;50.876;4.736;2023-07-29T13:44:13;24.20;99.90
8820;DHT22;4446;50.876;4.736;2023-07-29T13:46:40;24.40;99.90
8820;DHT22;4446;50.876;4.736;2023-07-29T13:49:08;24.10;99.90
8820;DHT22;4446;50.876;4.736;2023-07-29T13:51:35;23.70;99.90
8820;DHT22;4446;50.876;4.736;2023-07-29T13:54:02;23.80;99.90
8820;DHT22;4446;50.876;4.736;2023-07-29T13:56:29;23.80;99.90
8820;DHT22;4446;50.876;4.736;2023-07-29T13:58:56;23.70;99.90
8820;DHT22;4446;50.876;4.736;2023-07-29T14:01:23;23.70;99.90
8820;DHT22;4446;50.876;4.736;2023-07-29T14:03:50;24.00;99.90
8820;DHT22;4446;50.876;4.736;2023-07-29T14:06:18;24.40;99.90
8820;DHT22;4446;50.876;4.736;2023-07-29T14:08:45;24.90;99.90
8820;DHT22;4446;50.876;4.736;2023-07-29T14:11:12;25.20;99.90
8820;DHT22;4446;50.876;4.736;2023-07-29T14:13:39;25.70;99.90
8820;DHT22;4446;50.876;4.736;2023-07-29T14:16:06;25.40;99.90
8820;DHT22;4446;50.876;4.736;2023-07-29T14:18:33;24.90;99.90
8820;DHT22;4446;50.876;4.736;2023-07-29T14:20:59;24.60;99.90
8820;DHT22;4446;50.876;4.736;2023-07-29T14:23:28;24.50;99.90
8820;DHT22;4446;50.876;4.736;2023-07-29T14:25:55;24.30;99.90
8820;DHT22;4446;50.876;4.736;2023-07-29T14:28:22;24.00;99.90
8820;DHT22;4446;50.876;4.736;2023-07-29T14:30:49;23.80;99.90
8820;DHT22;4446;50.876;4.736;2023-07-29T14:33:16;24.30;99.90
8820;DHT22;4446;50.876;4.736;2023-07-29T14:35:43;24.90;99.90
8820;DHT22;4446;50.876;4.736;2023-07-29T14:38:10;25.90;99.90
8820;DHT22;4446;50.876;4.736;2023-07-29T14:40:38;26.40;99.90
8820;DHT22;4446;50.876;4.736;2023-07-29T14:43:05;26.20;99.90
8820;DHT22;4446;50.876;4.736;2023-07-29T14:45:32;25.80;99.90
8820;DHT22;4446;50.876;4.736;2023-07-29T14:47:59;25.90;99.90
8820;DHT22;4446;50.876;4.736;2023-07-29T14:50:26;26.50;99.90
8820;DHT22;4446;50.876;4.736;2023-07-29T14:52:53;27.10;99.90
8820;DHT22;4446;50.876;4.736;2023-07-29T14:55:20;27.40;99.90
8820;DHT22;4446;50.876;4.736;2023-07-29T14:57:48;27.20;99.90
8820;DHT22;4446;50.876;4.736;2023-07-29T15:00:15;26.70;99.90
8820;DHT22;4446;50.876;4.736;2023-07-29T15:02:43;26.70;99.90
8820;DHT22;4446;50.876;4.736;2023-07-29T15:05:10;27.00;99.90
8820;DHT22;4446;50.876;4.736;2023-07-29T15:07:37;27.00;99.90
8820;DHT22;4446;50.876;4.736;2023-07-29T15:10:04;27.50;99.90
8820;DHT22;4446;50.876;4.736;2023-07-29T15:12:31;28.00;99.90
8820;DHT22;4446;50.876;4.736;2023-07-29T15:15:00;27.90;99.90
8820;DHT22;4446;50.876;4.736;2023-07-29T15:17:27;27.70;99.90
8820;DHT22;4446;50.876;4.736;2023-07-29T15:19:54;27.50;99.90
8820;DHT22;4446;50.876;4.736;2023-07-29T15:22:21;27.20;99.90
8820;DHT22;4446;50.876;4.736;2023-07-29T15:24:47;26.70;99.90
8820;DHT22;4446;50.876;4.736;2023-07-29T15:27:14;26.40;99.90
8820;DHT22;4446;50.876;4.736;2023-07-29T15:29:41;26.40;99.90
8820;DHT22;4446;50.876;4.736;2023-07-29T15:32:10;26.30;99.90
8820;DHT22;4446;50.876;4.736;2023-07-29T15:34:36;26.10;99.90
8820;DHT22;4446;50.876;4.736;2023-07-29T15:37:04;26.30;99.90
8820;DHT22;4446;50.876;4.736;2023-07-29T15:39:31;26.20;99.90
8820;DHT22;4446;50.876;4.736;2023-07-29T15:41:58;26.10;99.90
8820;DHT22;4446;50.876;4.736;2023-07-29T15:44:24;25.80;99.90
8820;DHT22;4446;50.876;4.736;2023-07-29T15:46:51;25.40;99.90
8820;DHT22;4446;50.876;4.736;2023-07-29T15:49:20;25.50;99.90
8820;DHT22;4446;50.876;4.736;2023-07-29T15:51:47;26.10;99.90
8820;DHT22;4446;50.876;4.736;2023-07-29T15:54:14;27.00;99.90
8820;DHT22;4446;50.876;4.736;2023-07-29T15:56:41;27.50;99.90
8820;DHT22;4446;50.876;4.736;2023-07-29T15:59:08;27.70;99.90
8820;DHT22;4446;50.876;4.736;2023-07-29T16:01:35;27.90;99.90
8820;DHT22;4446;50.876;4.736;2023-07-29T16:04:02;27.30;99.90
8820;DHT22;4446;50.876;4.736;2023-07-29T16:06:32;27.00;99.90
8820;DHT22;4446;50.876;4.736;2023-07-29T16:09:00;26.50;99.90